-> Other stations

1455

Speed(max): 1.6(2.2)knots
Direction:255° ( WSW)
Temperature: 22.1°C
Arrived: 2026-08-31 05:13:07 CEST

Past data:
hh:mmknots
Dir (°)
°C
05:11 1.6 2.2 WSW(255) 22.1
05:09 1.1 1.6 WSW(255) 22.0
05:07 1.6 2.2 WSW(255) 22.0
05:05 2.2 2.7 WSW(255) 22.1
05:03 2.2 3.8 WSW(255) 22.1
05:01 2.7 3.8 WSW(255) 22.2
04:59 2.7 3.8 WSW(255) 22.1
04:57 2.7 4.3 WSW(255) 22.2
04:55 2.7 3.8 WSW(255) 22.2
04:53 3.2 4.3 WSW(255) 22.3
04:51 3.8 4.9 WSW(255) 22.3
04:49 3.8 4.3 WSW(255) 22.3
04:47 3.8 4.9 WSW(255) 22.3
04:45 3.8 4.3 WSW(255) 22.3
15 min. averages:
hh:mmknots
Dir (°)
°C
05:00 3.2 4.9 WSW(255) 22.3
04:45 3.2 4.9 WSW(255) 22.3
04:30 1.6 3.8 WSW(255) 21.5
04:15 0 0 WSW(255) 20.4
04:00 0 0 WSW(255) 19.9
03:45 0 0 WSW(256) 19.5
03:30 0 1.6 WSW(255) 19.6
03:15 0 1.6 WSW(255) 19.5
03:00 0.5 2.2 WSW(256) 19.6
02:45 0 1.6 WSW(256) 19.8
02:30 0 0 WSW(256) 19.9
02:15 0 1.6 WSW(256) 20.1
02:00 0 1.6 WSW(256) 20.2
01:45 0.5 1.6 WSW(256) 20.1
01:30 0.5 2.2 WSW(256) 20.4
Stations at HR:
1455
-> Other regions

Desktop view
Data provided by Holfuy.
© Holfuy Weather 2026